In Rescue
 
Open Full Screen Window  High Contrast Mode
Wind Gusting 14 knots
10
April 20, 2024 8:36 AM CDT
Weather Information
Wind Direction
  340 °
Wind Speed
  10 kt (12 mph)
Wind Gust
  14 kt (16 mph)
Altimeter
30.16 in
Visibility
10 SM
Temperature
00° C
32° F
Dewpoint
-06° C
21° F
Humidity
64%
Sky Condition
Broken @ 3,700 ft
Broken @ 3,000 ft
MVFR

METAR KCDD 201336Z AUTO 34010G14KT 10SM BKN030 BKN037 00/M06 A3016 RMK AO2

FAA Disclaimer: The data displayed is for advisory purposes only and is not to be used for flight planning or operations.